Time;durP1;ratioP1;P1;durP2;ratioP2;P2;SDS_P1;SDS_P2;PMS_P1;PMS_P2;Temp;Humidity;BMP_temperature;BMP_pressure;BME280_temperature;BME280_humidity;BME280_pressure;Samples;Min_cycle;Max_cycle;Signal;HPM_P1;HPM_P2
2023/09/21 00:00:50;;;;;;;1.05;0.60;;;20.80;99.90;;;;;;4121577;28;20190;-95
2023/09/21 00:02:55;;;;;;;1.10;0.40;;;20.70;99.90;;;;;;4106481;28;20183;-94
2023/09/21 00:04:56;;;;;;;1.23;0.60;;;20.70;99.90;;;;;;4137461;28;20181;-96
2023/09/21 00:07:02;;;;;;;1.20;0.60;;;20.80;99.90;;;;;;4120971;28;20332;-95
2023/09/21 00:09:04;;;;;;;1.17;0.60;;;20.80;99.90;;;;;;4107445;28;20190;-96
2023/09/21 00:11:07;;;;;;;0.90;0.60;;;20.70;99.90;;;;;;4122646;28;20273;-95
2023/09/21 00:13:12;;;;;;;0.68;0.40;;;20.70;99.90;;;;;;4121201;28;20179;-95
2023/09/21 00:15:21;;;;;;;1.58;0.50;;;20.60;99.90;;;;;;4122750;28;20683;-95
2023/09/21 00:17:24;;;;;;;1.70;0.50;;;20.80;99.90;;;;;;4108169;28;20183;-96
2023/09/21 00:19:26;;;;;;;3.03;0.50;;;20.90;99.90;;;;;;4105224;28;20183;-96
2023/09/21 00:21:27;;;;;;;2.10;0.60;;;20.90;99.90;;;;;;4136700;28;20216;-94
2023/09/21 00:23:31;;;;;;;0.60;0.38;;;20.80;99.90;;;;;;4137994;28;20711;-95
2023/09/21 00:25:32;;;;;;;2.40;0.73;;;20.70;99.90;;;;;;4122211;28;20202;-96
2023/09/21 00:27:39;;;;;;;1.45;0.60;;;20.60;99.90;;;;;;4121383;28;20194;-95
2023/09/21 00:29:40;;;;;;;4.65;1.20;;;20.50;99.90;;;;;;4119170;28;20186;-96
2023/09/21 00:31:41;;;;;;;0.98;0.40;;;20.50;99.90;;;;;;4122373;28;20178;-95
2023/09/21 00:33:42;;;;;;;2.33;0.40;;;20.50;99.90;;;;;;4121697;28;20213;-94
2023/09/21 00:35:43;;;;;;;2.15;0.52;;;20.60;99.90;;;;;;4121132;28;20202;-95
2023/09/21 00:37:46;;;;;;;2.20;0.90;;;20.60;99.90;;;;;;4108755;28;20197;-96
2023/09/21 00:39:47;;;;;;;0.88;0.45;;;20.50;99.90;;;;;;4137692;28;20679;-95
2023/09/21 00:41:51;;;;;;;0.88;0.40;;;20.40;99.90;;;;;;4124833;28;20673;-96
2023/09/21 00:43:54;;;;;;;1.65;0.50;;;20.40;99.90;;;;;;4125404;28;20202;-96
2023/09/21 00:45:57;;;;;;;1.10;0.50;;;20.40;99.90;;;;;;4122477;28;20221;-94
2023/09/21 00:48:00;;;;;;;1.60;0.50;;;20.60;99.90;;;;;;4123490;28;20182;-96
2023/09/21 00:50:06;;;;;;;2.50;0.60;;;20.60;99.90;;;;;;4139671;28;20236;-96
2023/09/21 00:52:11;;;;;;;1.73;0.57;;;20.60;99.90;;;;;;4106623;28;20274;-96
2023/09/21 00:54:12;;;;;;;2.10;0.82;;;20.70;99.90;;;;;;4103585;28;20230;-94
2023/09/21 00:56:18;;;;;;;1.63;0.60;;;20.60;99.90;;;;;;4135901;28;20646;-95
2023/09/21 00:58:23;;;;;;;1.83;0.80;;;20.70;99.90;;;;;;4122375;28;20246;-94
2023/09/21 01:00:30;;;;;;;1.45;0.60;;;20.80;99.90;;;;;;4120652;28;20633;-95
2023/09/21 01:02:31;;;;;;;0.68;0.47;;;20.80;99.90;;;;;;4119912;28;20220;-96
2023/09/21 01:04:32;;;;;;;2.03;0.50;;;20.70;99.90;;;;;;4107156;28;20666;-95
2023/09/21 01:06:33;;;;;;;1.30;0.40;;;20.90;99.90;;;;;;4104535;28;20233;-96
2023/09/21 01:08:34;;;;;;;0.65;0.47;;;20.70;99.90;;;;;;4138859;28;20588;-96
2023/09/21 01:10:44;;;;;;;3.03;0.50;;;20.70;99.90;;;;;;4122242;28;20282;-96
2023/09/21 01:12:48;;;;;;;3.15;0.43;;;20.70;99.90;;;;;;4107637;28;20221;-96
2023/09/21 01:15:08;;;;;;;0.95;0.45;;;20.80;99.90;;;;;;4138199;28;20225;-95
2023/09/21 01:17:09;;;;;;;2.60;0.93;;;21.10;99.90;;;;;;4121846;28;20203;-95
2023/09/21 01:19:10;;;;;;;1.50;0.80;;;20.90;99.90;;;;;;4108096;28;20187;-95
2023/09/21 01:21:13;;;;;;;1.27;0.50;;;20.80;99.90;;;;;;4103784;28;20190;-94
2023/09/21 01:23:22;;;;;;;2.85;0.95;;;20.80;99.90;;;;;;4122190;28;20206;-95
2023/09/21 01:25:26;;;;;;;2.25;0.60;;;20.80;99.90;;;;;;4122136;28;20184;-96
2023/09/21 01:27:27;;;;;;;0.52;0.40;;;20.80;99.90;;;;;;4121836;28;20647;-95
2023/09/21 01:29:30;;;;;;;0.80;0.55;;;20.80;99.90;;;;;;4102970;28;20187;-93
2023/09/21 01:31:30;;;;;;;2.42;0.77;;;20.80;99.90;;;;;;4106534;28;20196;-95
2023/09/21 01:33:33;;;;;;;1.23;0.52;;;20.70;99.90;;;;;;4105843;28;20199;-95
2023/09/21 01:35:34;;;;;;;1.67;0.50;;;20.60;99.90;;;;;;4107079;28;20194;-94
2023/09/21 01:37:36;;;;;;;2.00;0.65;;;20.70;99.90;;;;;;4139427;28;20184;-95
2023/09/21 01:39:37;;;;;;;0.82;0.50;;;20.80;99.90;;;;;;4119638;28;20186;-95
2023/09/21 01:41:37;;;;;;;1.30;0.70;;;20.80;99.90;;;;;;4105099;28;20663;-96
2023/09/21 01:43:39;;;;;;;3.45;0.40;;;21.00;99.90;;;;;;4106124;28;20230;-95
2023/09/21 01:45:40;;;;;;;0.95;0.22;;;21.00;99.90;;;;;;4120991;28;20213;-95
2023/09/21 01:47:41;;;;;;;0.75;0.40;;;20.90;99.90;;;;;;4104158;28;20175;-95
2023/09/21 01:49:44;;;;;;;2.05;0.60;;;20.70;99.90;;;;;;4104415;28;20279;-94
2023/09/21 01:51:44;;;;;;;1.45;0.73;;;20.70;99.90;;;;;;4137769;28;20186;-95
2023/09/21 01:53:48;;;;;;;2.05;0.70;;;20.60;99.90;;;;;;4104320;28;20203;-95
2023/09/21 01:55:50;;;;;;;2.15;0.57;;;20.70;99.90;;;;;;4137856;28;20182;-96
2023/09/21 01:57:51;;;;;;;0.98;0.50;;;20.70;99.90;;;;;;4121114;28;20541;-95
2023/09/21 01:59:52;;;;;;;3.53;0.77;;;20.60;99.90;;;;;;4105776;28;20190;-95
2023/09/21 02:01:53;;;;;;;1.42;0.50;;;20.40;99.90;;;;;;4107688;28;20246;-95
2023/09/21 02:03:54;;;;;;;1.25;0.57;;;20.30;99.90;;;;;;4124284;28;20210;-94
2023/09/21 02:05:58;;;;;;;1.38;0.60;;;20.40;99.90;;;;;;4112385;28;20238;-94
2023/09/21 02:08:00;;;;;;;1.85;0.70;;;20.40;99.90;;;;;;4106897;28;20267;-94
2023/09/21 02:10:01;;;;;;;2.47;0.52;;;20.50;99.90;;;;;;4106970;28;20186;-95
2023/09/21 02:12:02;;;;;;;1.13;0.47;;;20.50;99.90;;;;;;4124913;28;20209;-96
2023/09/21 02:14:11;;;;;;;1.63;0.80;;;20.60;99.90;;;;;;4121698;28;20676;-95
2023/09/21 02:16:14;;;;;;;1.17;0.50;;;20.50;99.90;;;;;;4106082;28;20581;-96
2023/09/21 02:18:15;;;;;;;3.13;0.60;;;20.60;99.90;;;;;;4109875;28;20190;-95
2023/09/21 02:20:16;;;;;;;1.17;0.40;;;20.70;99.90;;;;;;4122277;28;20186;-95
2023/09/21 02:22:20;;;;;;;2.38;0.70;;;20.70;99.90;;;;;;4107232;28;20610;-95
2023/09/21 02:24:21;;;;;;;0.90;0.50;;;20.50;99.90;;;;;;4137869;28;20201;-96
2023/09/21 02:26:23;;;;;;;1.70;0.50;;;20.50;99.90;;;;;;4107072;28;20225;-94
2023/09/21 02:28:24;;;;;;;0.70;0.40;;;20.50;99.90;;;;;;4125313;28;20206;-95
2023/09/21 02:30:25;;;;;;;0.95;0.50;;;20.50;99.90;;;;;;4123701;28;20245;-95
2023/09/21 02:32:27;;;;;;;2.92;0.70;;;20.50;99.90;;;;;;4092517;29;20191;-96
2023/09/21 02:34:30;;;;;;;0.82;0.60;;;20.60;99.90;;;;;;4141952;28;20197;-96
2023/09/21 02:36:32;;;;;;;1.58;0.60;;;20.50;99.90;;;;;;4105413;28;20187;-96
2023/09/21 02:38:34;;;;;;;4.78;0.52;;;20.40;99.90;;;;;;4109231;28;20191;-96
2023/09/21 02:40:36;;;;;;;4.13;0.40;;;20.40;99.90;;;;;;4107784;28;20215;-96
2023/09/21 02:42:37;;;;;;;2.42;0.70;;;20.30;99.90;;;;;;4113539;28;20179;-96
2023/09/21 02:44:40;;;;;;;2.17;0.50;;;20.30;99.90;;;;;;4109508;28;20206;-94
2023/09/21 02:46:43;;;;;;;2.63;0.50;;;20.30;99.90;;;;;;4124312;28;20218;-94
2023/09/21 02:48:44;;;;;;;1.15;0.43;;;20.30;99.90;;;;;;4106032;28;20187;-94
2023/09/21 02:50:48;;;;;;;5.50;0.35;;;20.30;99.90;;;;;;4105917;28;20210;-93
2023/09/21 02:52:56;;;;;;;0.82;0.45;;;20.20;99.90;;;;;;4106800;28;20187;-94
2023/09/21 02:54:59;;;;;;;0.47;0.40;;;20.20;99.90;;;;;;4106991;28;20175;-94
2023/09/21 02:57:02;;;;;;;3.50;0.68;;;20.10;99.90;;;;;;4125759;28;20197;-94
2023/09/21 02:59:03;;;;;;;1.92;0.65;;;20.10;99.90;;;;;;4106140;28;20213;-94
2023/09/21 03:01:05;;;;;;;0.85;0.40;;;20.00;99.90;;;;;;4109626;28;20190;-96
2023/09/21 03:03:07;;;;;;;1.52;0.50;;;19.80;99.90;;;;;;4109554;28;20167;-96
2023/09/21 03:05:13;;;;;;;3.80;1.05;;;19.60;99.90;;;;;;4121233;28;20581;-95
2023/09/21 03:07:16;;;;;;;2.97;0.50;;;19.70;99.90;;;;;;4109919;28;20224;-94
2023/09/21 03:09:18;;;;;;;1.30;0.55;;;19.70;99.90;;;;;;4125799;28;20179;-94
2023/09/21 03:11:23;;;;;;;0.75;0.43;;;19.90;99.90;;;;;;4121801;28;20237;-94
2023/09/21 03:13:23;;;;;;;0.98;0.40;;;19.90;99.90;;;;;;4121113;28;20706;-93
2023/09/21 03:15:25;;;;;;;1.88;0.60;;;19.90;99.90;;;;;;4118498;28;20182;-94
2023/09/21 03:17:28;;;;;;;2.05;0.70;;;19.80;99.90;;;;;;4121125;28;20238;-93
2023/09/21 03:19:29;;;;;;;1.75;0.40;;;19.70;99.90;;;;;;4103710;28;20183;-94
2023/09/21 03:21:30;;;;;;;1.55;0.80;;;19.60;99.90;;;;;;4137203;28;20620;-94
2023/09/21 03:23:31;;;;;;;1.10;0.50;;;19.50;99.90;;;;;;4134999;28;20252;-96
2023/09/21 03:25:33;;;;;;;0.95;0.40;;;19.50;99.90;;;;;;4122304;28;20190;-94
2023/09/21 03:27:34;;;;;;;0.80;0.57;;;19.60;99.90;;;;;;4121503;28;20403;-96
2023/09/21 03:29:35;;;;;;;4.57;0.70;;;19.50;99.90;;;;;;4108787;28;20565;-95
2023/09/21 03:31:36;;;;;;;1.50;0.40;;;19.40;99.90;;;;;;4125907;28;20202;-95
2023/09/21 03:33:37;;;;;;;1.13;0.50;;;19.30;99.90;;;;;;4108818;28;20643;-95
2023/09/21 03:35:38;;;;;;;1.02;0.50;;;19.20;99.90;;;;;;4104192;28;20175;-95
2023/09/21 03:37:43;;;;;;;1.10;0.60;;;19.10;99.90;;;;;;4123816;28;20672;-93
2023/09/21 03:39:44;;;;;;;0.75;0.50;;;19.00;99.90;;;;;;4119076;28;20186;-93
2023/09/21 03:41:46;;;;;;;1.85;0.80;;;18.80;99.90;;;;;;4119825;28;20656;-93
2023/09/21 03:43:46;;;;;;;2.67;0.55;;;18.90;99.90;;;;;;4103389;28;20269;-93
2023/09/21 03:45:47;;;;;;;0.88;0.50;;;18.90;99.90;;;;;;4107195;28;20171;-92
2023/09/21 03:47:49;;;;;;;1.05;0.60;;;18.70;99.90;;;;;;4104657;28;20692;-95
2023/09/21 03:49:50;;;;;;;0.82;0.52;;;18.60;99.90;;;;;;4111160;28;20183;-93
2023/09/21 03:51:51;;;;;;;2.13;0.55;;;18.70;99.90;;;;;;4137507;28;20275;-94
2023/09/21 03:53:54;;;;;;;3.08;0.95;;;18.60;99.90;;;;;;4122633;28;20205;-96
2023/09/21 03:55:56;;;;;;;2.88;0.75;;;18.50;99.90;;;;;;4122139;28;20186;-92
2023/09/21 03:57:57;;;;;;;1.52;0.70;;;18.60;99.90;;;;;;4121607;28;20213;-93
2023/09/21 03:59:58;;;;;;;1.60;0.60;;;18.50;99.90;;;;;;4104833;28;20183;-93
2023/09/21 04:01:58;;;;;;;1.83;0.73;;;18.40;99.90;;;;;;4108483;28;20210;-96
2023/09/21 04:04:05;;;;;;;1.80;0.73;;;18.50;99.90;;;;;;4107218;28;20199;-93
2023/09/21 04:06:06;;;;;;;0.70;0.47;;;18.60;99.90;;;;;;4137334;28;20220;-96
2023/09/21 04:08:08;;;;;;;2.42;0.55;;;18.70;99.90;;;;;;4104358;28;20595;-94
2023/09/21 04:10:12;;;;;;;1.17;0.50;;;18.70;99.90;;;;;;4120397;28;20189;-92
2023/09/21 04:12:15;;;;;;;2.13;0.95;;;18.70;99.90;;;;;;4137129;28;20205;-93
2023/09/21 04:14:16;;;;;;;2.28;0.60;;;18.70;99.90;;;;;;4103970;28;20298;-93
2023/09/21 04:16:17;;;;;;;0.98;0.60;;;18.80;99.90;;;;;;4136952;28;20640;-93
2023/09/21 04:18:18;;;;;;;0.95;0.50;;;18.70;99.90;;;;;;4136171;28;20178;-92
2023/09/21 04:20:19;;;;;;;0.50;0.30;;;18.70;99.90;;;;;;4103619;28;20183;-93
2023/09/21 04:22:21;;;;;;;3.95;1.33;;;18.80;99.90;;;;;;4134306;28;20186;-93
2023/09/21 04:24:22;;;;;;;3.13;0.70;;;18.70;99.90;;;;;;4101843;28;20205;-94
2023/09/21 04:26:23;;;;;;;0.68;0.40;;;18.60;99.90;;;;;;4102081;28;20218;-96
2023/09/21 04:28:23;;;;;;;1.60;0.40;;;18.50;99.90;;;;;;4135061;28;20762;-94
2023/09/21 04:30:24;;;;;;;7.00;0.63;;;18.20;99.90;;;;;;4119171;28;20194;-95
2023/09/21 04:32:26;;;;;;;1.73;0.60;;;18.10;99.90;;;;;;4119678;28;20170;-93
2023/09/21 04:34:27;;;;;;;0.75;0.50;;;18.10;99.90;;;;;;4102635;28;20215;-93
2023/09/21 04:36:28;;;;;;;0.50;0.43;;;18.00;99.90;;;;;;4117270;28;20174;-93
2023/09/21 04:38:28;;;;;;;0.85;0.55;;;18.20;99.90;;;;;;4102521;28;20692;-93
2023/09/21 04:40:30;;;;;;;1.23;0.40;;;18.30;99.90;;;;;;4101902;28;20179;-95
2023/09/21 04:42:32;;;;;;;2.00;0.73;;;18.30;99.90;;;;;;4134737;28;20217;-92
2023/09/21 04:44:33;;;;;;;1.25;0.52;;;18.20;99.90;;;;;;4136459;28;20189;-94
2023/09/21 04:46:36;;;;;;;2.20;0.73;;;18.20;99.90;;;;;;4105121;28;20234;-95
2023/09/21 04:48:39;;;;;;;2.15;0.55;;;18.20;99.90;;;;;;4102296;28;20209;-93
2023/09/21 04:50:42;;;;;;;0.95;0.50;;;18.20;99.90;;;;;;4134889;28;20189;-94
2023/09/21 04:52:45;;;;;;;0.95;0.52;;;18.10;99.90;;;;;;4118742;28;20225;-93
2023/09/21 04:54:51;;;;;;;0.40;0.30;;;18.10;99.90;;;;;;4116991;28;20213;-93
2023/09/21 04:56:52;;;;;;;1.02;0.65;;;18.00;99.90;;;;;;4117896;28;20185;-94
2023/09/21 04:58:55;;;;;;;2.05;0.88;;;17.90;99.90;;;;;;4119189;28;20182;-94
2023/09/21 05:00:56;;;;;;;1.27;0.57;;;17.90;99.90;;;;;;4102887;28;20189;-94
2023/09/21 05:02:57;;;;;;;2.88;0.85;;;17.80;99.90;;;;;;4135170;28;20280;-95
2023/09/21 05:04:59;;;;;;;1.33;0.52;;;17.80;99.90;;;;;;4104575;28;20214;-93
2023/09/21 05:07:00;;;;;;;2.70;0.80;;;17.90;99.90;;;;;;4117772;28;20218;-91
2023/09/21 05:09:01;;;;;;;1.00;0.50;;;18.00;99.90;;;;;;4116608;28;20653;-92
2023/09/21 05:11:04;;;;;;;0.70;0.43;;;18.00;99.90;;;;;;4100320;28;20303;-91
2023/09/21 05:13:04;;;;;;;1.15;0.65;;;18.00;99.90;;;;;;4116220;28;20265;-92
2023/09/21 05:15:07;;;;;;;4.32;0.93;;;18.00;99.90;;;;;;4116138;28;20190;-92
2023/09/21 05:17:08;;;;;;;2.10;0.60;;;17.90;99.90;;;;;;4116202;28;20178;-91
2023/09/21 05:19:09;;;;;;;1.52;0.88;;;17.90;99.90;;;;;;4099813;28;20189;-91
2023/09/21 05:21:10;;;;;;;2.35;0.98;;;17.90;99.90;;;;;;4116816;28;20186;-91
2023/09/21 05:23:11;;;;;;;2.17;0.73;;;17.90;99.90;;;;;;4100998;28;20654;-90
2023/09/21 05:25:12;;;;;;;2.92;1.10;;;17.90;99.90;;;;;;4100193;28;20191;-92
2023/09/21 05:27:13;;;;;;;1.63;0.60;;;17.80;99.90;;;;;;4101863;28;20294;-95
2023/09/21 05:29:14;;;;;;;2.17;0.82;;;17.80;99.90;;;;;;4132537;28;20193;-91
2023/09/21 05:31:14;;;;;;;0.68;0.47;;;18.10;99.90;;;;;;4100335;28;20202;-91
2023/09/21 05:33:15;;;;;;;1.23;0.85;;;18.20;99.90;;;;;;4132510;28;20284;-90
2023/09/21 05:35:16;;;;;;;1.70;0.60;;;18.10;99.90;;;;;;4103993;28;20213;-90
2023/09/21 05:37:19;;;;;;;1.08;0.50;;;18.10;99.90;;;;;;4120691;28;20221;-89
2023/09/21 05:39:20;;;;;;;9.45;0.85;;;18.30;99.90;;;;;;4104363;28;20314;-91
2023/09/21 05:41:21;;;;;;;0.65;0.30;;;18.40;99.90;;;;;;4119400;28;20178;-95
2023/09/21 05:43:21;;;;;;;1.15;0.50;;;18.70;99.90;;;;;;4103853;28;20203;-90
2023/09/21 05:45:22;;;;;;;0.47;0.30;;;18.60;99.90;;;;;;4103156;28;20207;-95
2023/09/21 05:47:25;;;;;;;0.82;0.30;;;18.50;99.90;;;;;;4118822;28;20236;-94
2023/09/21 05:49:27;;;;;;;0.68;0.30;;;18.40;99.90;;;;;;4118619;28;20221;-95
2023/09/21 05:51:28;;;;;;;1.10;0.25;;;18.00;99.90;;;;;;4102515;28;20195;-94
2023/09/21 05:53:30;;;;;;;2.45;0.30;;;17.80;99.90;;;;;;4102193;28;20190;-95
2023/09/21 05:55:31;;;;;;;6.03;0.50;;;17.80;99.90;;;;;;4118241;28;20206;-95
2023/09/21 05:57:32;;;;;;;0.95;0.40;;;17.60;99.90;;;;;;4102499;28;20183;-92
2023/09/21 05:59:32;;;;;;;0.45;0.20;;;17.50;99.90;;;;;;4102366;29;20211;-94
2023/09/21 06:01:33;;;;;;;0.50;0.30;;;17.40;99.90;;;;;;4102189;28;20777;-92
2023/09/21 06:03:35;;;;;;;0.30;0.20;;;17.30;99.90;;;;;;4101952;28;20209;-92
2023/09/21 06:05:36;;;;;;;0.65;0.30;;;17.30;99.90;;;;;;4102177;28;20537;-92
2023/09/21 06:07:37;;;;;;;1.02;0.30;;;17.40;99.90;;;;;;4134377;28;20181;-94
2023/09/21 06:09:38;;;;;;;1.20;0.30;;;17.30;99.90;;;;;;4102330;28;20183;-94
2023/09/21 06:11:39;;;;;;;0.57;0.20;;;17.30;99.90;;;;;;4118649;28;20740;-95
2023/09/21 06:13:40;;;;;;;0.15;0.15;;;17.30;99.90;;;;;;4118036;28;20210;-93
2023/09/21 06:15:47;;;;;;;0.38;0.20;;;17.40;99.90;;;;;;4118131;28;20240;-91
2023/09/21 06:17:48;;;;;;;0.63;0.20;;;17.50;99.90;;;;;;4118256;28;20183;-91
2023/09/21 06:19:48;;;;;;;2.90;0.75;;;17.60;99.90;;;;;;4118059;28;20278;-93
2023/09/21 06:21:56;;;;;;;1.35;0.30;;;17.80;99.90;;;;;;4102562;28;20179;-93
2023/09/21 06:23:57;;;;;;;0.65;0.20;;;17.70;99.90;;;;;;4102147;28;20210;-93
2023/09/21 06:25:59;;;;;;;0.70;0.20;;;17.90;99.90;;;;;;4102122;28;20305;-92
2023/09/21 06:28:00;;;;;;;0.38;0.13;;;17.70;99.90;;;;;;4118059;28;20297;-95
2023/09/21 06:30:00;;;;;;;0.70;0.32;;;17.70;99.90;;;;;;4101903;28;20179;-95
2023/09/21 06:32:07;;;;;;;0.20;0.10;;;17.80;99.90;;;;;;4133991;28;20185;-92
2023/09/21 06:34:07;;;;;;;0.40;0.30;;;17.80;99.90;;;;;;4101660;28;20195;-93
2023/09/21 06:36:15;;;;;;;0.75;0.28;;;17.70;99.90;;;;;;4101900;28;20650;-93
2023/09/21 06:38:15;;;;;;;0.85;0.15;;;17.70;99.90;;;;;;4101901;28;20190;-93
2023/09/21 06:40:16;;;;;;;0.52;0.10;;;17.60;99.90;;;;;;4117696;28;20186;-93
2023/09/21 06:42:17;;;;;;;1.40;0.45;;;17.60;99.90;;;;;;4101794;28;20187;-94
2023/09/21 06:44:18;;;;;;;0.93;0.20;;;17.70;99.90;;;;;;4133396;28;20295;-93
2023/09/21 06:46:19;;;;;;;0.40;0.15;;;17.80;99.90;;;;;;4101392;28;20226;-93
2023/09/21 06:48:19;;;;;;;4.63;0.40;;;17.90;99.90;;;;;;4133741;28;20244;-92
2023/09/21 06:50:21;;;;;;;0.20;0.10;;;17.80;99.90;;;;;;4101724;28;20191;-92
2023/09/21 06:52:22;;;;;;;0.60;0.13;;;17.70;99.90;;;;;;4101492;28;20283;-92
2023/09/21 06:54:24;;;;;;;1.00;0.25;;;17.80;99.90;;;;;;4101424;28;20249;-93
2023/09/21 06:56:29;;;;;;;1.45;0.25;;;17.80;99.90;;;;;;4133532;28;20200;-92
2023/09/21 06:58:30;;;;;;;0.57;0.20;;;18.00;99.90;;;;;;4101421;28;20179;-92
2023/09/21 07:00:31;;;;;;;0.73;0.20;;;17.80;99.90;;;;;;4133274;28;20252;-92
2023/09/21 07:02:32;;;;;;;0.40;0.20;;;18.00;99.90;;;;;;4101595;28;20183;-92
2023/09/21 07:04:36;;;;;;;0.60;0.22;;;17.70;99.90;;;;;;4133516;28;20210;-92
2023/09/21 07:06:37;;;;;;;1.17;0.50;;;17.70;99.90;;;;;;4101260;28;20218;-92
2023/09/21 07:08:37;;;;;;;0.80;0.22;;;17.40;99.90;;;;;;4101118;28;20239;-91
2023/09/21 07:10:38;;;;;;;0.35;0.20;;;17.40;99.90;;;;;;4101083;28;20179;-95
2023/09/21 07:12:39;;;;;;;0.95;0.30;;;17.50;99.90;;;;;;4101631;28;20234;-93
2023/09/21 07:14:40;;;;;;;0.60;0.40;;;17.70;99.90;;;;;;4101236;29;20230;-92
2023/09/21 07:16:41;;;;;;;1.08;0.20;;;17.80;99.90;;;;;;4117249;28;20183;-92
2023/09/21 07:18:43;;;;;;;0.55;0.20;;;17.50;99.90;;;;;;4117579;28;20175;-91
2023/09/21 07:20:45;;;;;;;0.50;0.30;;;17.50;99.90;;;;;;4101412;28;20277;-91
2023/09/21 07:22:47;;;;;;;0.63;0.40;;;17.50;99.90;;;;;;4101825;28;20242;-92
2023/09/21 07:24:48;;;;;;;0.30;0.30;;;17.50;99.90;;;;;;4133344;28;20229;-92
2023/09/21 07:26:49;;;;;;;0.95;0.30;;;17.80;99.90;;;;;;4117380;28;20280;-92
2023/09/21 07:28:52;;;;;;;0.20;0.10;;;17.80;99.90;;;;;;4117846;28;20194;-93
2023/09/21 07:30:53;;;;;;;1.13;0.20;;;17.80;99.90;;;;;;4120119;28;20180;-92
2023/09/21 07:32:55;;;;;;;0.40;0.30;;;17.90;99.90;;;;;;4116765;28;20214;-91
2023/09/21 07:34:55;;;;;;;1.33;0.45;;;17.90;99.90;;;;;;4101591;28;20182;-91
2023/09/21 07:36:57;;;;;;;2.40;0.35;;;17.90;99.90;;;;;;4117277;28;20190;-92
2023/09/21 07:38:58;;;;;;;0.75;0.35;;;18.10;99.90;;;;;;4117500;28;20186;-93
2023/09/21 07:40:59;;;;;;;0.98;0.20;;;18.00;99.90;;;;;;4117966;28;20193;-92
2023/09/21 07:43:00;;;;;;;0.15;0.15;;;18.00;99.90;;;;;;4118794;28;20183;-91
2023/09/21 07:45:01;;;;;;;0.22;0.20;;;17.90;99.90;;;;;;4119428;28;20197;-93
2023/09/21 07:47:02;;;;;;;0.20;0.05;;;18.10;99.90;;;;;;4100932;28;20226;-92
2023/09/21 07:49:07;;;;;;;0.35;0.20;;;17.90;99.90;;;;;;4101399;28;20194;-92
2023/09/21 07:51:08;;;;;;;0.60;0.20;;;17.80;99.90;;;;;;4125186;28;20242;-90
2023/09/21 07:53:09;;;;;;;0.63;0.30;;;17.70;99.90;;;;;;4121682;28;20201;-90
2023/09/21 07:55:10;;;;;;;0.10;0.10;;;17.70;99.90;;;;;;4102204;28;20187;-92
2023/09/21 07:57:11;;;;;;;1.85;0.30;;;17.50;99.90;;;;;;4100297;28;20187;-92
2023/09/21 07:59:11;;;;;;;0.25;0.20;;;17.60;99.90;;;;;;4100479;28;20175;-92
2023/09/21 08:01:12;;;;;;;0.60;0.20;;;17.70;99.90;;;;;;4100586;28;20179;-92
2023/09/21 08:03:13;;;;;;;0.57;0.20;;;17.80;99.90;;;;;;4100515;28;20175;-94
2023/09/21 08:05:15;;;;;;;1.13;0.30;;;17.70;99.90;;;;;;4132581;28;20182;-92
2023/09/21 08:07:23;;;;;;;1.98;0.65;;;17.90;99.90;;;;;;4100908;28;20221;-93
2023/09/21 08:09:24;;;;;;;2.47;0.40;;;18.10;99.90;;;;;;4133058;28;20185;-92
2023/09/21 08:11:26;;;;;;;1.45;0.38;;;18.20;99.90;;;;;;4116508;28;20221;-92
2023/09/21 08:13:27;;;;;;;0.20;0.20;;;17.90;99.90;;;;;;4100848;28;20237;-93
2023/09/21 08:15:27;;;;;;;0.35;0.20;;;18.00;99.90;;;;;;4100922;28;20222;-91
2023/09/21 08:17:30;;;;;;;0.85;0.30;;;17.70;99.90;;;;;;4116960;28;20194;-93
2023/09/21 08:19:31;;;;;;;0.43;0.17;;;17.60;99.90;;;;;;4132467;28;20181;-94
2023/09/21 08:21:32;;;;;;;0.90;0.30;;;17.60;99.90;;;;;;4132172;28;20263;-94
2023/09/21 08:23:33;;;;;;;0.63;0.22;;;17.40;99.90;;;;;;4116296;28;20213;-94
2023/09/21 08:25:37;;;;;;;0.40;0.22;;;17.20;99.90;;;;;;4132161;28;20272;-92
2023/09/21 08:27:39;;;;;;;1.92;0.80;;;17.30;99.90;;;;;;4100854;28;20328;-93
2023/09/21 08:29:41;;;;;;;0.63;0.30;;;17.20;99.90;;;;;;4100507;28;20189;-93
2023/09/21 08:31:42;;;;;;;2.28;0.82;;;17.10;99.90;;;;;;4100109;28;20179;-93
2023/09/21 08:33:43;;;;;;;1.20;0.20;;;17.10;99.90;;;;;;4115958;28;20209;-92
2023/09/21 08:35:44;;;;;;;0.57;0.38;;;17.30;99.90;;;;;;4132113;28;20199;-91
2023/09/21 08:37:44;;;;;;;0.57;0.35;;;17.40;99.90;;;;;;4100371;28;20190;-92
2023/09/21 08:39:45;;;;;;;0.30;0.20;;;17.60;99.90;;;;;;4100560;28;20189;-91
2023/09/21 08:41:51;;;;;;;0.65;0.30;;;17.40;99.90;;;;;;4100297;28;20198;-92
2023/09/21 08:43:54;;;;;;;0.68;0.30;;;17.50;99.90;;;;;;4132195;28;20276;-92
2023/09/21 08:45:55;;;;;;;0.50;0.30;;;17.50;99.90;;;;;;4100155;28;20178;-91
2023/09/21 08:47:56;;;;;;;1.45;0.30;;;17.60;99.90;;;;;;4100436;28;20191;-94
2023/09/21 08:50:00;;;;;;;2.33;0.35;;;17.70;99.90;;;;;;4099857;28;20193;-91
2023/09/21 08:52:05;;;;;;;1.23;0.30;;;17.80;99.90;;;;;;4132299;28;20174;-93
2023/09/21 08:54:13;;;;;;;0.63;0.20;;;18.20;99.90;;;;;;4116083;28;20332;-92
2023/09/21 08:56:13;;;;;;;0.85;0.50;;;18.30;99.90;;;;;;4115724;28;20260;-94
2023/09/21 08:58:23;;;;;;;1.08;0.63;;;18.40;99.90;;;;;;4115777;28;20667;-93
2023/09/21 09:00:28;;;;;;;0.50;0.30;;;18.30;99.90;;;;;;4115949;28;20264;-92
2023/09/21 09:02:28;;;;;;;0.70;0.50;;;18.00;99.90;;;;;;4115832;28;20191;-91
2023/09/21 09:04:29;;;;;;;1.60;0.35;;;17.80;99.90;;;;;;4115726;28;20554;-92
2023/09/21 09:06:30;;;;;;;0.68;0.20;;;18.00;99.90;;;;;;4115673;28;20680;-92
2023/09/21 09:08:31;;;;;;;0.50;0.20;;;18.10;99.90;;;;;;4117672;28;20193;-95
2023/09/21 09:10:40;;;;;;;0.60;0.35;;;18.40;99.90;;;;;;4119152;28;20190;-95
2023/09/21 09:12:41;;;;;;;1.25;0.65;;;18.70;99.90;;;;;;4119270;28;20174;-91
2023/09/21 09:14:42;;;;;;;0.40;0.30;;;18.80;99.90;;;;;;4102994;28;20205;-94
2023/09/21 09:16:44;;;;;;;1.02;0.30;;;18.60;99.90;;;;;;4103054;28;20559;-94
2023/09/21 09:18:45;;;;;;;0.93;0.40;;;18.40;99.90;;;;;;4119077;28;20190;-91
2023/09/21 09:20:46;;;;;;;0.20;0.15;;;18.80;99.90;;;;;;4119009;28;20201;-92
2023/09/21 09:22:50;;;;;;;1.92;0.43;;;18.60;99.90;;;;;;4119022;28;20183;-94
2023/09/21 09:24:52;;;;;;;1.15;0.75;;;18.40;99.90;;;;;;4118961;28;20233;-95
2023/09/21 09:26:53;;;;;;;0.63;0.40;;;17.80;99.90;;;;;;4102953;28;20316;-95
2023/09/21 09:29:04;;;;;;;0.38;0.13;;;17.40;99.90;;;;;;4102824;28;20191;-94
2023/09/21 09:31:11;;;;;;;0.65;0.30;;;17.10;99.90;;;;;;4103780;28;20195;-93
2023/09/21 09:33:15;;;;;;;0.45;0.20;;;16.90;99.90;;;;;;4120168;28;20178;-94
2023/09/21 09:35:17;;;;;;;0.17;0.10;;;16.80;99.90;;;;;;4103177;28;20190;-92
2023/09/21 09:37:18;;;;;;;0.63;0.32;;;16.90;99.90;;;;;;4119063;28;20178;-91
2023/09/21 09:39:19;;;;;;;0.30;0.20;;;17.10;99.90;;;;;;4118508;28;20187;-91
2023/09/21 09:41:21;;;;;;;0.13;0.10;;;17.10;99.90;;;;;;4118777;28;20182;-94
2023/09/21 09:43:26;;;;;;;0.40;0.20;;;17.20;99.90;;;;;;4118716;28;20202;-93
2023/09/21 09:45:30;;;;;;;2.10;0.35;;;17.30;99.90;;;;;;4118311;28;20186;-93
2023/09/21 09:47:35;;;;;;;0.30;0.10;;;17.30;99.90;;;;;;4120182;28;20272;-92
2023/09/21 09:49:40;;;;;;;0.60;0.10;;;17.40;99.90;;;;;;4118901;28;20185;-95
2023/09/21 09:51:44;;;;;;;0.93;0.20;;;17.20;99.90;;;;;;4118707;28;20219;-95
2023/09/21 09:53:47;;;;;;;0.98;0.10;;;17.10;99.90;;;;;;4102540;28;20207;-92
2023/09/21 09:55:50;;;;;;;0.08;0.03;;;17.30;99.90;;;;;;4102316;28;20183;-94
2023/09/21 09:57:55;;;;;;;2.17;0.13;;;17.30;99.90;;;;;;4118326;28;20198;-92
2023/09/21 09:59:58;;;;;;;0.00;0.00;;;17.30;99.90;;;;;;4118565;28;20194;-92
2023/09/21 10:01:59;;;;;;;0.47;0.10;;;17.30;99.90;;;;;;4118244;28;20185;-94
2023/09/21 10:04:01;;;;;;;0.30;0.10;;;17.00;99.90;;;;;;4118835;28;20202;-92
2023/09/21 10:06:03;;;;;;;0.32;0.10;;;17.00;99.90;;;;;;4118421;28;20757;-94
2023/09/21 10:08:07;;;;;;;0.45;0.30;;;17.00;99.90;;;;;;4118945;28;20232;-92
2023/09/21 10:10:15;;;;;;;0.10;0.10;;;17.20;99.90;;;;;;4119313;28;20186;-92
2023/09/21 10:12:19;;;;;;;0.00;0.00;;;17.30;99.90;;;;;;4104485;28;20182;-92
2023/09/21 10:14:19;;;;;;;0.10;0.10;;;17.60;99.90;;;;;;4106384;28;20558;-95
2023/09/21 10:16:24;;;;;;;0.00;0.00;;;17.70;99.90;;;;;;4102746;28;20650;-95
2023/09/21 10:18:35;;;;;;;0.00;0.00;;;18.00;99.90;;;;;;4134647;28;20575;-91
2023/09/21 10:20:37;;;;;;;0.30;0.10;;;18.50;99.90;;;;;;4117879;28;20632;-95
2023/09/21 10:22:42;;;;;;;0.10;0.10;;;18.80;99.90;;;;;;4102559;28;20261;-95
2023/09/21 10:24:50;;;;;;;0.90;0.10;;;18.90;99.90;;;;;;4118317;28;20210;-95
2023/09/21 10:26:53;;;;;;;0.00;0.00;;;18.60;99.90;;;;;;4102141;28;20214;-92
2023/09/21 10:28:54;;;;;;;0.30;0.10;;;18.50;99.90;;;;;;4134115;28;20193;-91
2023/09/21 10:31:15;;;;;;;0.38;0.20;;;18.50;99.90;;;;;;4101730;28;20194;-92
2023/09/21 10:33:16;;;;;;;1.02;0.15;;;18.60;99.90;;;;;;4095077;28;20210;-92
2023/09/21 10:35:42;;;;;;;1.13;0.40;;;18.10;99.90;;;;;;4133902;28;20194;-92
2023/09/21 10:37:42;;;;;;;0.20;0.10;;;17.70;99.90;;;;;;4101904;28;20231;-92